sensor_id;sensor_type;location;lat;lon;timestamp;pressure;altitude;pressure_sealevel;temperature;humidity
78123;BME280;67376;44.802;10.332;2023-06-14T00:02:11;100502.56;;;25.56;51.94
78123;BME280;67376;44.802;10.332;2023-06-14T00:04:37;100495.47;;;25.45;52.21
78123;BME280;67376;44.802;10.332;2023-06-14T00:07:05;100506.66;;;25.54;51.78
78123;BME280;67376;44.802;10.332;2023-06-14T00:09:33;100491.91;;;25.45;51.74
78123;BME280;67376;44.802;10.332;2023-06-14T00:11:58;100492.19;;;25.43;52.40
78123;BME280;67376;44.802;10.332;2023-06-14T00:14:24;100496.56;;;25.49;52.23
78123;BME280;67376;44.802;10.332;2023-06-14T00:16:49;100496.56;;;25.49;52.36
78123;BME280;67376;44.802;10.332;2023-06-14T00:19:17;100492.75;;;25.45;52.31
78123;BME280;67376;44.802;10.332;2023-06-14T00:21:43;100500.38;;;25.48;52.16
78123;BME280;67376;44.802;10.332;2023-06-14T00:24:08;100498.47;;;25.49;52.47
78123;BME280;67376;44.802;10.332;2023-06-14T00:26:34;100506.41;;;25.50;52.82
78123;BME280;67376;44.802;10.332;2023-06-14T00:28:59;100501.47;;;25.47;52.50
78123;BME280;67376;44.802;10.332;2023-06-14T00:31:25;100507.50;;;25.49;52.08
78123;BME280;67376;44.802;10.332;2023-06-14T00:33:50;100495.19;;;25.47;52.84
78123;BME280;67376;44.802;10.332;2023-06-14T00:36:15;100486.72;;;25.43;52.07
78123;BME280;67376;44.802;10.332;2023-06-14T00:38:41;100477.19;;;25.36;52.14
78123;BME280;67376;44.802;10.332;2023-06-14T00:41:06;100486.44;;;25.45;52.44
78123;BME280;67376;44.802;10.332;2023-06-14T00:43:32;100484.25;;;25.47;52.42
78123;BME280;67376;44.802;10.332;2023-06-14T00:45:59;100477.16;;;25.51;51.85
78123;BME280;67376;44.802;10.332;2023-06-14T00:48:25;100472.22;;;25.48;52.16
78123;BME280;67376;44.802;10.332;2023-06-14T00:50:51;100476.63;;;25.44;52.73
78123;BME280;67376;44.802;10.332;2023-06-14T00:53:18;100465.41;;;25.45;52.25
78123;BME280;67376;44.802;10.332;2023-06-14T00:55:46;100477.69;;;25.48;52.36
78123;BME280;67376;44.802;10.332;2023-06-14T00:58:11;100476.31;;;25.50;51.61
78123;BME280;67376;44.802;10.332;2023-06-14T01:00:37;100477.97;;;25.46;52.06
78123;BME280;67376;44.802;10.332;2023-06-14T01:03:02;100468.69;;;25.42;51.84
78123;BME280;67376;44.802;10.332;2023-06-14T01:05:29;100470.88;;;25.45;52.72
78123;BME280;67376;44.802;10.332;2023-06-14T01:11:21;100468.13;;;25.50;52.49
78123;BME280;67376;44.802;10.332;2023-06-14T01:13:47;100471.97;;;25.49;52.37
78123;BME280;67376;44.802;10.332;2023-06-14T01:16:14;100462.41;;;25.47;51.77
78123;BME280;67376;44.802;10.332;2023-06-14T01:18:39;100469.78;;;25.46;51.62
78123;BME280;67376;44.802;10.332;2023-06-14T01:21:20;100457.19;;;25.45;51.65
78123;BME280;67376;44.802;10.332;2023-06-14T01:23:45;100465.16;;;25.42;51.65
78123;BME280;67376;44.802;10.332;2023-06-14T01:26:13;100461.63;;;25.41;51.88
78123;BME280;67376;44.802;10.332;2023-06-14T01:28:41;100458.63;;;25.38;51.67
78123;BME280;67376;44.802;10.332;2023-06-14T01:31:07;100462.97;;;25.39;52.30
78123;BME280;67376;44.802;10.332;2023-06-14T01:33:33;100457.78;;;25.37;52.33
78123;BME280;67376;44.802;10.332;2023-06-14T01:36:02;100449.03;;;25.40;51.70
78123;BME280;67376;44.802;10.332;2023-06-14T01:38:29;100443.84;;;25.39;51.58
78123;BME280;67376;44.802;10.332;2023-06-14T01:40:56;100443.84;;;25.39;52.45
78123;BME280;67376;44.802;10.332;2023-06-14T01:43:23;100436.19;;;25.41;51.57
78123;BME280;67376;44.802;10.332;2023-06-14T01:45:50;100437.53;;;25.43;51.39
78123;BME280;67376;44.802;10.332;2023-06-14T01:48:16;100435.63;;;25.44;51.43
78123;BME280;67376;44.802;10.332;2023-06-14T01:50:42;100433.69;;;25.44;52.07
78123;BME280;67376;44.802;10.332;2023-06-14T01:53:08;100427.19;;;25.40;51.36
78123;BME280;67376;44.802;10.332;2023-06-14T01:55:34;100429.91;;;25.40;51.48
78123;BME280;67376;44.802;10.332;2023-06-14T01:58:03;100431.00;;;25.39;52.47
78123;BME280;67376;44.802;10.332;2023-06-14T02:00:29;100423.09;;;25.38;51.78
78123;BME280;67376;44.802;10.332;2023-06-14T02:02:55;100430.47;;;25.37;51.81
78123;BME280;67376;44.802;10.332;2023-06-14T02:05:21;100431.81;;;25.40;51.37
78123;BME280;67376;44.802;10.332;2023-06-14T02:07:46;100430.19;;;25.39;51.45
78123;BME280;67376;44.802;10.332;2023-06-14T02:10:12;100441.66;;;25.36;52.45
78123;BME280;67376;44.802;10.332;2023-06-14T02:12:38;100436.72;;;25.43;51.46
78123;BME280;67376;44.802;10.332;2023-06-14T02:15:03;100432.06;;;25.43;52.11
78123;BME280;67376;44.802;10.332;2023-06-14T02:17:29;100415.44;;;25.34;51.64
78123;BME280;67376;44.802;10.332;2023-06-14T02:19:54;100430.19;;;25.39;52.24
78123;BME280;67376;44.802;10.332;2023-06-14T02:22:22;100428.00;;;25.41;51.47
78123;BME280;67376;44.802;10.332;2023-06-14T02:24:48;100429.09;;;25.40;51.91
78123;BME280;67376;44.802;10.332;2023-06-14T02:27:14;100425.81;;;25.38;52.13
78123;BME280;67376;44.802;10.332;2023-06-14T02:29:39;100425.28;;;25.36;51.59
78123;BME280;67376;44.802;10.332;2023-06-14T02:32:05;100427.72;;;25.37;51.40
78123;BME280;67376;44.802;10.332;2023-06-14T02:34:33;100427.19;;;25.40;52.20
78123;BME280;67376;44.802;10.332;2023-06-14T02:36:59;100431.00;;;25.39;51.48
78123;BME280;67376;44.802;10.332;2023-06-14T02:39:24;100426.34;;;25.40;51.55
78123;BME280;67376;44.802;10.332;2023-06-14T02:41:50;100431.81;;;25.40;51.83
78123;BME280;67376;44.802;10.332;2023-06-14T02:44:17;100432.09;;;25.38;52.04
78123;BME280;67376;44.802;10.332;2023-06-14T02:46:43;100420.63;;;25.41;51.57
78123;BME280;67376;44.802;10.332;2023-06-14T02:49:09;100423.09;;;25.38;52.06
78123;BME280;67376;44.802;10.332;2023-06-14T02:51:34;100420.34;;;25.38;51.91
78123;BME280;67376;44.802;10.332;2023-06-14T02:54:00;100426.91;;;25.31;52.14
78123;BME280;67376;44.802;10.332;2023-06-14T02:56:25;100417.34;;;25.29;52.29
78123;BME280;67376;44.802;10.332;2023-06-14T02:58:51;100419.53;;;25.37;52.34
78123;BME280;67376;44.802;10.332;2023-06-14T03:01:16;100423.09;;;25.38;51.60
78123;BME280;67376;44.802;10.332;2023-06-14T03:03:43;100425.53;;;25.39;52.38
78123;BME280;67376;44.802;10.332;2023-06-14T03:06:08;100416.53;;;25.39;51.63
78123;BME280;67376;44.802;10.332;2023-06-14T03:08:35;100417.91;;;25.36;52.49
78123;BME280;67376;44.802;10.332;2023-06-14T03:11:04;100420.63;;;25.36;52.11
78123;BME280;67376;44.802;10.332;2023-06-14T03:13:30;100429.91;;;25.35;52.39
78123;BME280;67376;44.802;10.332;2023-06-14T03:15:57;100429.09;;;25.34;51.72
78123;BME280;67376;44.802;10.332;2023-06-14T03:18:23;100423.09;;;25.38;52.43
78123;BME280;67376;44.802;10.332;2023-06-14T03:20:48;100426.91;;;25.37;52.00
78123;BME280;67376;44.802;10.332;2023-06-14T03:23:14;100425.81;;;25.32;52.39
78123;BME280;67376;44.802;10.332;2023-06-14T03:25:39;100427.72;;;25.37;52.21
78123;BME280;67376;44.802;10.332;2023-06-14T03:28:07;100431.56;;;25.36;52.53
78123;BME280;67376;44.802;10.332;2023-06-14T03:30:33;100428.00;;;25.30;52.23
78123;BME280;67376;44.802;10.332;2023-06-14T03:32:58;100426.94;;;25.26;51.79
78123;BME280;67376;44.802;10.332;2023-06-14T03:35:26;100430.75;;;25.30;51.81
78123;BME280;67376;44.802;10.332;2023-06-14T03:37:51;100428.28;;;25.34;52.30
78123;BME280;67376;44.802;10.332;2023-06-14T03:40:18;100428.28;;;25.29;52.00
78123;BME280;67376;44.802;10.332;2023-06-14T03:42:43;100434.03;;;25.32;51.97
78123;BME280;67376;44.802;10.332;2023-06-14T03:45:09;100434.03;;;25.32;51.90
78123;BME280;67376;44.802;10.332;2023-06-14T03:47:35;100442.78;;;25.29;52.27
78123;BME280;67376;44.802;10.332;2023-06-14T03:50:04;100446.06;;;25.31;52.39
78123;BME280;67376;44.802;10.332;2023-06-14T03:52:30;100442.50;;;25.36;51.64
78123;BME280;67376;44.802;10.332;2023-06-14T03:54:56;100442.75;;;25.34;51.47
78123;BME280;67376;44.802;10.332;2023-06-14T03:57:23;100437.84;;;25.31;51.86
78123;BME280;67376;44.802;10.332;2023-06-14T03:59:49;100447.41;;;25.29;52.01
78123;BME280;67376;44.802;10.332;2023-06-14T04:02:15;100444.69;;;25.29;51.70
78123;BME280;67376;44.802;10.332;2023-06-14T04:04:41;100447.16;;;25.25;52.58
78123;BME280;67376;44.802;10.332;2023-06-14T04:07:10;100445.50;;;25.24;52.16
78123;BME280;67376;44.802;10.332;2023-06-14T04:09:37;100455.63;;;25.29;52.18
78123;BME280;67376;44.802;10.332;2023-06-14T04:12:02;100453.97;;;25.28;52.20
78123;BME280;67376;44.802;10.332;2023-06-14T04:14:28;100451.25;;;25.28;52.65
78123;BME280;67376;44.802;10.332;2023-06-14T04:16:53;100459.72;;;25.31;52.03
78123;BME280;67376;44.802;10.332;2023-06-14T04:19:19;100457.53;;;25.28;52.60
78123;BME280;67376;44.802;10.332;2023-06-14T04:21:44;100459.72;;;25.31;51.87
78123;BME280;67376;44.802;10.332;2023-06-14T04:24:10;100460.25;;;25.28;52.75
78123;BME280;67376;44.802;10.332;2023-06-14T04:26:43;100461.63;;;25.31;51.55
78123;BME280;67376;44.802;10.332;2023-06-14T04:29:12;100467.91;;;25.37;52.10
78123;BME280;67376;44.802;10.332;2023-06-14T04:31:44;100465.72;;;25.33;52.11
78123;BME280;67376;44.802;10.332;2023-06-14T04:34:10;100467.09;;;25.16;52.62
78123;BME280;67376;44.802;10.332;2023-06-14T04:36:42;100471.22;;;25.13;53.13
78123;BME280;67376;44.802;10.332;2023-06-14T04:39:15;100470.66;;;25.31;52.43
78123;BME280;67376;44.802;10.332;2023-06-14T04:41:40;100461.63;;;25.36;51.91
78123;BME280;67376;44.802;10.332;2023-06-14T04:44:06;100475.56;;;25.29;52.69
78123;BME280;67376;44.802;10.332;2023-06-14T04:46:32;100467.66;;;25.23;52.79
78123;BME280;67376;44.802;10.332;2023-06-14T04:48:58;100481.31;;;25.23;52.48
78123;BME280;67376;44.802;10.332;2023-06-14T04:51:27;100478.03;;;25.26;52.91
78123;BME280;67376;44.802;10.332;2023-06-14T04:53:55;100480.22;;;25.29;52.33
78123;BME280;67376;44.802;10.332;2023-06-14T04:56:22;100475.84;;;25.28;53.25
78123;BME280;67376;44.802;10.332;2023-06-14T04:58:48;100476.13;;;25.26;53.26
78123;BME280;67376;44.802;10.332;2023-06-14T05:01:13;100477.22;;;25.25;52.65
78123;BME280;67376;44.802;10.332;2023-06-14T05:03:39;100478.59;;;25.18;53.30
78123;BME280;67376;44.802;10.332;2023-06-14T05:06:04;100467.66;;;25.08;52.60
78123;BME280;67376;44.802;10.332;2023-06-14T05:08:31;100473.66;;;25.10;52.70
78123;BME280;67376;44.802;10.332;2023-06-14T05:10:56;100474.75;;;25.14;52.49
78123;BME280;67376;44.802;10.332;2023-06-14T05:13:21;100475.03;;;25.17;52.99
78123;BME280;67376;44.802;10.332;2023-06-14T05:15:48;100484.88;;;25.13;52.73
78123;BME280;67376;44.802;10.332;2023-06-14T05:18:14;100485.13;;;25.12;52.36
78123;BME280;67376;44.802;10.332;2023-06-14T05:20:41;100490.88;;;25.15;52.33
78123;BME280;67376;44.802;10.332;2023-06-14T05:23:09;100489.25;;;25.09;52.82
78123;BME280;67376;44.802;10.332;2023-06-14T05:25:41;100490.06;;;25.10;53.37
78123;BME280;67376;44.802;10.332;2023-06-14T05:28:06;100484.59;;;25.15;53.00
78123;BME280;67376;44.802;10.332;2023-06-14T05:30:32;100486.78;;;25.23;52.36
78123;BME280;67376;44.802;10.332;2023-06-14T05:32:58;100483.22;;;25.27;53.04
78123;BME280;67376;44.802;10.332;2023-06-14T05:35:24;100472.56;;;25.21;52.78
78123;BME280;67376;44.802;10.332;2023-06-14T05:37:52;100475.28;;;25.31;53.03
78123;BME280;67376;44.802;10.332;2023-06-14T05:40:17;100467.94;;;25.21;53.12
78123;BME280;67376;44.802;10.332;2023-06-14T05:42:43;100475.84;;;25.23;53.04
78123;BME280;67376;44.802;10.332;2023-06-14T05:45:08;100482.66;;;25.36;52.62
78123;BME280;67376;44.802;10.332;2023-06-14T05:47:33;100471.47;;;25.01;52.26
78123;BME280;67376;44.802;10.332;2023-06-14T05:49:59;100481.97;;;24.22;55.09
78123;BME280;67376;44.802;10.332;2023-06-14T05:52:24;100468.53;;;24.00;55.79
78123;BME280;67376;44.802;10.332;2023-06-14T05:54:50;100477.25;;;24.02;56.30
78123;BME280;67376;44.802;10.332;2023-06-14T05:57:15;100475.44;;;24.23;55.56
78123;BME280;67376;44.802;10.332;2023-06-14T05:59:41;100480.13;;;24.38;55.32
78123;BME280;67376;44.802;10.332;2023-06-14T06:02:06;100486.41;;;24.43;54.70
78123;BME280;67376;44.802;10.332;2023-06-14T06:04:32;100484.25;;;24.55;54.56
78123;BME280;67376;44.802;10.332;2023-06-14T06:06:57;100474.16;;;24.61;53.86
78123;BME280;67376;44.802;10.332;2023-06-14T06:09:23;100477.19;;;24.64;54.09
78123;BME280;67376;44.802;10.332;2023-06-14T06:11:48;100479.38;;;24.73;54.31
78123;BME280;67376;44.802;10.332;2023-06-14T06:14:13;100487.56;;;24.73;53.53
78123;BME280;67376;44.802;10.332;2023-06-14T06:16:39;100485.13;;;24.76;53.61
78123;BME280;67376;44.802;10.332;2023-06-14T06:19:04;100479.38;;;24.83;53.23
78123;BME280;67376;44.802;10.332;2023-06-14T06:21:30;100477.72;;;24.87;53.06
78123;BME280;67376;44.802;10.332;2023-06-14T06:23:55;100476.34;;;24.89;53.80
78123;BME280;67376;44.802;10.332;2023-06-14T06:26:22;100489.22;;;24.84;54.02
78123;BME280;67376;44.802;10.332;2023-06-14T06:28:47;100489.75;;;24.91;53.07
78123;BME280;67376;44.802;10.332;2023-06-14T06:31:12;100487.28;;;24.89;53.69
78123;BME280;67376;44.802;10.332;2023-06-14T06:33:38;100488.91;;;24.85;53.15
78123;BME280;67376;44.802;10.332;2023-06-14T06:36:05;100491.94;;;24.89;53.80
78123;BME280;67376;44.802;10.332;2023-06-14T06:38:30;100494.66;;;24.94;53.70
78123;BME280;67376;44.802;10.332;2023-06-14T06:40:56;100498.22;;;24.94;53.69
78123;BME280;67376;44.802;10.332;2023-06-14T06:43:22;100501.75;;;24.95;53.73
78123;BME280;67376;44.802;10.332;2023-06-14T06:45:47;100502.03;;;24.93;53.05
78123;BME280;67376;44.802;10.332;2023-06-14T06:48:13;100505.84;;;24.92;53.98
78123;BME280;67376;44.802;10.332;2023-06-14T06:50:38;100514.59;;;24.94;53.73
78123;BME280;67376;44.802;10.332;2023-06-14T06:53:04;100510.53;;;24.97;53.78
78123;BME280;67376;44.802;10.332;2023-06-14T06:55:30;100505.06;;;24.97;53.45
78123;BME280;67376;44.802;10.332;2023-06-14T06:57:55;100511.09;;;24.99;53.89
78123;BME280;67376;44.802;10.332;2023-06-14T07:00:21;100521.47;;;24.97;53.47
78123;BME280;67376;44.802;10.332;2023-06-14T07:02:46;100520.66;;;24.96;54.08
78123;BME280;67376;44.802;10.332;2023-06-14T07:05:13;100511.34;;;24.97;53.48
78123;BME280;67376;44.802;10.332;2023-06-14T07:07:38;100515.47;;;25.00;53.10
78123;BME280;67376;44.802;10.332;2023-06-14T07:10:04;100521.75;;;25.06;53.91
78123;BME280;67376;44.802;10.332;2023-06-14T07:12:33;100525.28;;;25.01;53.50
78123;BME280;67376;44.802;10.332;2023-06-14T07:15:01;100525.28;;;25.01;53.57
78123;BME280;67376;44.802;10.332;2023-06-14T07:17:26;100523.66;;;25.05;53.18
78123;BME280;67376;44.802;10.332;2023-06-14T07:19:52;100520.38;;;25.03;53.71
78123;BME280;67376;44.802;10.332;2023-06-14T07:22:18;100526.13;;;25.01;53.09
78123;BME280;67376;44.802;10.332;2023-06-14T07:24:44;100527.47;;;25.04;54.22
78123;BME280;67376;44.802;10.332;2023-06-14T07:27:09;100528.56;;;25.03;54.21
78123;BME280;67376;44.802;10.332;2023-06-14T07:29:36;100528.84;;;25.07;53.81
78123;BME280;67376;44.802;10.332;2023-06-14T07:32:01;100523.66;;;25.10;53.44
78123;BME280;67376;44.802;10.332;2023-06-14T07:34:26;100527.50;;;25.14;53.34
78123;BME280;67376;44.802;10.332;2023-06-14T07:36:52;100533.78;;;25.25;53.29
78123;BME280;67376;44.802;10.332;2023-06-14T07:39:19;100533.22;;;25.28;52.62
78123;BME280;67376;44.802;10.332;2023-06-14T07:41:44;100544.44;;;25.37;53.19
78123;BME280;67376;44.802;10.332;2023-06-14T07:44:10;100543.88;;;25.34;52.90
78123;BME280;67376;44.802;10.332;2023-06-14T07:46:37;100542.53;;;25.37;52.48
78123;BME280;67376;44.802;10.332;2023-06-14T07:49:03;100540.59;;;25.32;52.67
78123;BME280;67376;44.802;10.332;2023-06-14T07:51:29;100537.06;;;25.37;53.26
78123;BME280;67376;44.802;10.332;2023-06-14T07:53:54;100547.72;;;25.39;53.65
78123;BME280;67376;44.802;10.332;2023-06-14T07:56:20;100555.06;;;25.43;53.08
78123;BME280;67376;44.802;10.332;2023-06-14T07:58:45;100553.69;;;25.46;52.90
78123;BME280;67376;44.802;10.332;2023-06-14T08:01:11;100551.78;;;25.46;53.53
78123;BME280;67376;44.802;10.332;2023-06-14T08:03:37;100550.69;;;25.42;53.71
78123;BME280;67376;44.802;10.332;2023-06-14T08:06:02;100538.97;;;25.31;53.92
78123;BME280;67376;44.802;10.332;2023-06-14T08:08:29;100544.97;;;25.39;53.51
78123;BME280;67376;44.802;10.332;2023-06-14T08:10:55;100558.06;;;25.47;53.10
78123;BME280;67376;44.802;10.332;2023-06-14T08:13:21;100563.25;;;25.48;53.05
78123;BME280;67376;44.802;10.332;2023-06-14T08:15:46;100556.97;;;25.43;54.21
78123;BME280;67376;44.802;10.332;2023-06-14T08:18:12;100557.53;;;25.45;53.23
78123;BME280;67376;44.802;10.332;2023-06-14T08:20:37;100559.97;;;25.46;53.28
78123;BME280;67376;44.802;10.332;2023-06-14T08:23:03;100556.16;;;25.47;53.27
78123;BME280;67376;44.802;10.332;2023-06-14T08:25:29;100567.38;;;25.46;53.79
78123;BME280;67376;44.802;10.332;2023-06-14T08:27:55;100562.72;;;25.46;54.33
78123;BME280;67376;44.802;10.332;2023-06-14T08:30:21;100566.53;;;25.45;54.02
78123;BME280;67376;44.802;10.332;2023-06-14T08:32:47;100568.72;;;25.43;53.62
78123;BME280;67376;44.802;10.332;2023-06-14T08:35:12;100581.06;;;25.30;54.81
78123;BME280;67376;44.802;10.332;2023-06-14T08:37:41;100573.41;;;25.32;54.59
78123;BME280;67376;44.802;10.332;2023-06-14T08:40:22;100579.41;;;25.34;53.90
78123;BME280;67376;44.802;10.332;2023-06-14T08:42:54;100576.41;;;25.26;54.71
78123;BME280;67376;44.802;10.332;2023-06-14T08:45:24;100579.13;;;25.21;54.44
78123;BME280;67376;44.802;10.332;2023-06-14T08:47:50;100578.59;;;25.24;54.18
78123;BME280;67376;44.802;10.332;2023-06-14T08:50:20;100578.59;;;25.14;55.12
78123;BME280;67376;44.802;10.332;2023-06-14T08:52:45;100578.84;;;25.12;54.45
78123;BME280;67376;44.802;10.332;2023-06-14T08:55:15;100588.97;;;25.17;55.30
78123;BME280;67376;44.802;10.332;2023-06-14T08:57:43;100587.59;;;25.24;54.79
78123;BME280;67376;44.802;10.332;2023-06-14T09:00:11;100584.59;;;25.26;54.38
78123;BME280;67376;44.802;10.332;2023-06-14T09:02:41;100586.78;;;25.29;54.05
78123;BME280;67376;44.802;10.332;2023-06-14T09:05:11;100592.81;;;25.31;54.00
78123;BME280;67376;44.802;10.332;2023-06-14T09:07:41;100579.69;;;25.33;54.69
78123;BME280;67376;44.802;10.332;2023-06-14T09:10:11;100585.16;;;25.38;54.50
78123;BME280;67376;44.802;10.332;2023-06-14T09:12:37;100585.44;;;25.37;54.00
78123;BME280;67376;44.802;10.332;2023-06-14T09:15:04;100581.88;;;25.36;54.28
78123;BME280;67376;44.802;10.332;2023-06-14T09:17:38;100588.16;;;25.37;54.20
78123;BME280;67376;44.802;10.332;2023-06-14T09:20:04;100595.28;;;25.38;53.74
78123;BME280;67376;44.802;10.332;2023-06-14T09:22:42;100593.09;;;25.40;54.39
78123;BME280;67376;44.802;10.332;2023-06-14T09:25:08;100588.69;;;25.44;53.61
78123;BME280;67376;44.802;10.332;2023-06-14T09:27:34;100590.06;;;25.46;53.84
78123;BME280;67376;44.802;10.332;2023-06-14T09:30:03;100588.97;;;25.47;54.02
78123;BME280;67376;44.802;10.332;2023-06-14T09:32:29;100596.34;;;25.47;53.38
78123;BME280;67376;44.802;10.332;2023-06-14T09:34:56;100588.13;;;25.52;53.86
78123;BME280;67376;44.802;10.332;2023-06-14T09:37:28;100578.31;;;25.51;53.77
78123;BME280;67376;44.802;10.332;2023-06-14T09:39:54;100581.56;;;25.53;53.44
78123;BME280;67376;44.802;10.332;2023-06-14T09:42:20;100585.13;;;25.53;53.77
78123;BME280;67376;44.802;10.332;2023-06-14T09:44:47;100587.59;;;25.50;53.56
78123;BME280;67376;44.802;10.332;2023-06-14T09:47:17;100581.31;;;25.49;53.85
78123;BME280;67376;44.802;10.332;2023-06-14T09:49:42;100576.66;;;25.45;54.07
78123;BME280;67376;44.802;10.332;2023-06-14T09:52:18;100575.88;;;25.39;53.92
78123;BME280;67376;44.802;10.332;2023-06-14T09:54:45;100574.19;;;25.48;53.14
78123;BME280;67376;44.802;10.332;2023-06-14T09:57:14;100575.56;;;25.46;53.53
78123;BME280;67376;44.802;10.332;2023-06-14T09:59:44;100568.19;;;25.61;53.73
78123;BME280;67376;44.802;10.332;2023-06-14T10:02:18;100572.56;;;25.57;53.34
78123;BME280;67376;44.802;10.332;2023-06-14T10:04:51;100576.38;;;25.51;54.19
78123;BME280;67376;44.802;10.332;2023-06-14T10:07:20;100577.47;;;25.45;53.27
78123;BME280;67376;44.802;10.332;2023-06-14T10:09:47;100572.56;;;25.47;54.20
78123;BME280;67376;44.802;10.332;2023-06-14T10:12:17;100572.28;;;25.44;53.45
78123;BME280;67376;44.802;10.332;2023-06-14T10:14:50;100580.22;;;25.45;54.15
78123;BME280;67376;44.802;10.332;2023-06-14T10:18:11;100581.31;;;25.44;53.25
78123;BME280;67376;44.802;10.332;2023-06-14T10:20:32;100570.09;;;25.46;53.64
78123;BME280;67376;44.802;10.332;2023-06-14T10:23:03;100569.56;;;25.49;54.05
78123;BME280;67376;44.802;10.332;2023-06-14T10:25:33;100572.84;;;25.46;53.86
78123;BME280;67376;44.802;10.332;2023-06-14T10:31:11;100565.44;;;25.46;53.42
78123;BME280;67376;44.802;10.332;2023-06-14T10:33:55;100561.63;;;25.47;53.55
78123;BME280;67376;44.802;10.332;2023-06-14T10:36:28;100561.63;;;25.57;53.65
78123;BME280;67376;44.802;10.332;2023-06-14T10:39:18;100555.59;;;25.55;53.27
78123;BME280;67376;44.802;10.332;2023-06-14T10:41:52;100561.06;;;25.55;53.70
78123;BME280;67376;44.802;10.332;2023-06-14T10:46:47;100554.50;;;25.61;53.96
78123;BME280;67376;44.802;10.332;2023-06-14T10:49:18;100550.44;;;25.64;53.33
78123;BME280;67376;44.802;10.332;2023-06-14T10:51:49;100555.06;;;25.69;53.18
78123;BME280;67376;44.802;10.332;2023-06-14T10:54:16;100554.53;;;25.66;53.21
78123;BME280;67376;44.802;10.332;2023-06-14T10:56:53;100542.75;;;25.56;54.03
78123;BME280;67376;44.802;10.332;2023-06-14T10:59:19;100546.56;;;25.60;53.60
78123;BME280;67376;44.802;10.332;2023-06-14T11:01:58;100549.59;;;25.58;53.35
78123;BME280;67376;44.802;10.332;2023-06-14T11:04:53;100547.94;;;25.62;52.68
78123;BME280;67376;44.802;10.332;2023-06-14T11:10:22;100542.22;;;25.64;52.50
78123;BME280;67376;44.802;10.332;2023-06-14T11:12:52;100532.91;;;25.60;53.50
78123;BME280;67376;44.802;10.332;2023-06-14T11:15:19;100536.72;;;25.59;53.72
78123;BME280;67376;44.802;10.332;2023-06-14T11:17:51;100540.28;;;25.59;53.02
78123;BME280;67376;44.802;10.332;2023-06-14T11:20:18;100534.00;;;25.59;51.99
78123;BME280;67376;44.802;10.332;2023-06-14T11:22:45;100530.19;;;25.50;51.03
78123;BME280;67376;44.802;10.332;2023-06-14T11:25:13;100523.63;;;25.46;52.51
78123;BME280;67376;44.802;10.332;2023-06-14T11:27:39;100513.25;;;25.48;52.19
78123;BME280;67376;44.802;10.332;2023-06-14T11:30:07;100521.72;;;25.51;53.25
78123;BME280;67376;44.802;10.332;2023-06-14T11:32:32;100519.25;;;25.55;53.26
78123;BME280;67376;44.802;10.332;2023-06-14T11:34:58;100503.94;;;25.44;52.65
78123;BME280;67376;44.802;10.332;2023-06-14T11:37:25;100514.31;;;25.52;52.58
78123;BME280;67376;44.802;10.332;2023-06-14T11:39:56;100515.41;;;25.51;52.03
78123;BME280;67376;44.802;10.332;2023-06-14T11:42:21;100514.88;;;25.54;51.99
78123;BME280;67376;44.802;10.332;2023-06-14T11:44:47;100507.50;;;25.54;51.54
78123;BME280;67376;44.802;10.332;2023-06-14T11:47:12;100513.78;;;25.55;51.87
78123;BME280;67376;44.802;10.332;2023-06-14T11:49:38;100517.31;;;25.60;50.69
78123;BME280;67376;44.802;10.332;2023-06-14T11:52:04;100515.41;;;25.56;51.34
78123;BME280;67376;44.802;10.332;2023-06-14T11:54:31;100511.59;;;25.52;51.27
78123;BME280;67376;44.802;10.332;2023-06-14T11:56:57;100510.50;;;25.48;51.96
78123;BME280;67376;44.802;10.332;2023-06-14T11:59:24;100500.38;;;25.48;51.53
78123;BME280;67376;44.802;10.332;2023-06-14T12:01:50;100512.69;;;25.51;51.33
78123;BME280;67376;44.802;10.332;2023-06-14T12:04:23;100511.59;;;25.52;52.07
78123;BME280;67376;44.802;10.332;2023-06-14T12:06:50;100496.84;;;25.48;51.98
78123;BME280;67376;44.802;10.332;2023-06-14T12:09:18;100502.28;;;25.53;51.77
78123;BME280;67376;44.802;10.332;2023-06-14T12:11:45;100502.28;;;25.53;51.77
78123;BME280;67376;44.802;10.332;2023-06-14T12:14:10;100495.72;;;25.54;50.42
78123;BME280;67376;44.802;10.332;2023-06-14T12:16:38;100493.00;;;25.49;50.66
78123;BME280;67376;44.802;10.332;2023-06-14T12:19:15;100493.28;;;25.52;50.54
78123;BME280;67376;44.802;10.332;2023-06-14T12:21:42;100487.25;;;25.55;49.57
78123;BME280;67376;44.802;10.332;2023-06-14T12:24:09;100482.63;;;25.51;49.64
78123;BME280;67376;44.802;10.332;2023-06-14T12:26:40;100477.41;;;25.54;48.95
78123;BME280;67376;44.802;10.332;2023-06-14T12:29:08;100488.63;;;25.53;49.44
78123;BME280;67376;44.802;10.332;2023-06-14T12:31:34;100482.34;;;25.52;49.92
78123;BME280;67376;44.802;10.332;2023-06-14T12:33:59;100479.88;;;25.51;50.13
78123;BME280;67376;44.802;10.332;2023-06-14T12:36:25;100483.72;;;25.50;49.55
78123;BME280;67376;44.802;10.332;2023-06-14T12:38:51;100482.34;;;25.52;49.10
78123;BME280;67376;44.802;10.332;2023-06-14T12:41:19;100484.25;;;25.52;48.32
78123;BME280;67376;44.802;10.332;2023-06-14T12:43:46;100492.16;;;25.58;48.70
78123;BME280;67376;44.802;10.332;2023-06-14T12:46:12;100490.53;;;25.57;48.85
78123;BME280;67376;44.802;10.332;2023-06-14T12:48:37;100489.97;;;25.60;48.70
78123;BME280;67376;44.802;10.332;2023-06-14T12:51:02;100476.59;;;25.64;48.75
78123;BME280;67376;44.802;10.332;2023-06-14T12:53:28;100476.88;;;25.52;49.10